Time;durP1;ratioP1;P1;durP2;ratioP2;P2;SDS_P1;SDS_P2;PMS_P1;PMS_P2;Temp;Humidity;BMP_temperature;BMP_pressure;BME280_temperature;BME280_humidity;BME280_pressure;Samples;Min_cycle;Max_cycle;Signal;HPM_P1;HPM_P2
2021/09/27 00:01:07;;;;;;;0.00;0.00;;;12.30;71.90;;;;;;5051419;28;20025;-75
2021/09/27 00:03:33;;;;;;;0.00;0.00;;;12.30;72.00;;;;;;5056965;28;20108;-75
2021/09/27 00:05:59;;;;;;;0.00;0.00;;;12.30;72.00;;;;;;5057117;28;20029;-75
2021/09/27 00:08:26;;;;;;;0.00;0.00;;;12.20;72.10;;;;;;5056836;28;20446;-75
2021/09/27 00:10:57;;;;;;;0.00;0.00;;;12.20;72.30;;;;;;5055645;28;20025;-75
2021/09/27 00:13:27;;;;;;;0.00;0.00;;;12.20;72.30;;;;;;5056480;28;20472;-75
2021/09/27 00:15:55;;;;;;;0.00;0.00;;;12.20;72.30;;;;;;5045437;28;20477;-75
2021/09/27 00:18:21;;;;;;;0.00;0.00;;;12.20;72.30;;;;;;5068574;28;20457;-75
2021/09/27 00:20:52;;;;;;;0.00;0.00;;;12.10;72.30;;;;;;5055477;28;20167;-76
2021/09/27 00:23:19;;;;;;;0.00;0.00;;;12.10;72.30;;;;;;5055337;28;20397;-77
2021/09/27 00:25:46;;;;;;;0.00;0.00;;;12.10;72.30;;;;;;5056829;28;20052;-74
2021/09/27 00:28:12;;;;;;;0.00;0.00;;;12.00;72.20;;;;;;5055226;28;20469;-74
2021/09/27 00:30:38;;;;;;;0.00;0.00;;;12.00;72.30;;;;;;5041375;28;20040;-76
2021/09/27 00:33:05;;;;;;;0.00;0.00;;;12.00;72.30;;;;;;5034945;28;20113;-76
2021/09/27 00:35:34;;;;;;;0.00;0.00;;;12.00;72.30;;;;;;5035223;28;20057;-76
2021/09/27 00:38:00;;;;;;;0.00;0.00;;;12.00;72.40;;;;;;5036432;28;20036;-76
2021/09/27 00:40:32;;;;;;;0.00;0.00;;;11.90;72.40;;;;;;5035019;28;20108;-75
2021/09/27 00:42:59;;;;;;;0.00;0.00;;;11.90;72.40;;;;;;5036228;28;20457;-75
2021/09/27 00:45:28;;;;;;;0.00;0.00;;;11.90;72.50;;;;;;5035733;28;20025;-75
2021/09/27 00:47:54;;;;;;;0.00;0.00;;;11.90;72.70;;;;;;5035980;28;20044;-76
2021/09/27 00:50:23;;;;;;;0.00;0.00;;;11.90;72.80;;;;;;5036168;28;20029;-75
2021/09/27 00:52:49;;;;;;;0.00;0.00;;;11.90;72.90;;;;;;5036008;28;20030;-76
2021/09/27 00:55:19;;;;;;;0.00;0.00;;;11.90;73.00;;;;;;5034711;28;20068;-75
2021/09/27 00:57:45;;;;;;;0.00;0.00;;;11.90;73.10;;;;;;5035604;28;20120;-75
2021/09/27 01:00:17;;;;;;;0.00;0.00;;;11.80;73.10;;;;;;5051383;28;20026;-75
2021/09/27 01:02:43;;;;;;;0.00;0.00;;;11.80;73.20;;;;;;5035859;28;20025;-74
2021/09/27 01:05:11;;;;;;;0.00;0.00;;;11.80;73.20;;;;;;5034721;28;20427;-74
2021/09/27 01:07:59;;;;;;;0.00;0.00;;;11.80;73.40;;;;;;5035716;28;20072;-74
2021/09/27 01:10:59;;;;;;;0.00;0.00;;;11.80;73.50;;;;;;5034452;28;20112;-75
2021/09/27 01:13:47;;;;;;;0.00;0.00;;;11.80;73.50;;;;;;5035738;28;20030;-75
2021/09/27 01:16:25;;;;;;;0.00;0.00;;;11.80;73.60;;;;;;5034561;28;20477;-75
2021/09/27 01:19:19;;;;;;;0.00;0.00;;;11.70;73.60;;;;;;5034395;28;20034;-74
2021/09/27 01:22:04;;;;;;;0.00;0.00;;;11.70;73.70;;;;;;5034322;28;20021;-74
2021/09/27 01:24:38;;;;;;;0.00;0.00;;;11.80;73.70;;;;;;5035622;28;20049;-75
2021/09/27 01:27:13;;;;;;;;;;;11.80;73.70;;;;;;5034947;28;20446;-74
2021/09/27 01:29:45;;;;;;;0.00;0.00;;;11.80;73.40;;;;;;5035681;28;19972;-74
2021/09/27 01:32:28;;;;;;;0.00;0.00;;;11.80;73.10;;;;;;5034083;28;20029;-75
2021/09/27 01:35:04;;;;;;;0.00;0.00;;;11.90;73.40;;;;;;5033970;28;20048;-75
2021/09/27 01:37:45;;;;;;;0.00;0.00;;;11.80;73.40;;;;;;5035316;28;20033;-75
2021/09/27 01:40:19;;;;;;;0.00;0.00;;;11.80;73.40;;;;;;5035424;28;20025;-75
2021/09/27 01:43:00;;;;;;;0.00;0.00;;;11.80;73.50;;;;;;5033794;28;20381;-75
2021/09/27 01:45:46;;;;;;;0.00;0.00;;;11.80;73.60;;;;;;5034766;28;20048;-74
2021/09/27 01:48:30;;;;;;;0.00;0.00;;;11.80;73.70;;;;;;5034818;28;20033;-75
2021/09/27 01:51:35;;;;;;;0.00;0.00;;;11.80;73.80;;;;;;5033991;28;20041;-75
2021/09/27 01:54:14;;;;;;;0.00;0.00;;;11.80;74.00;;;;;;5033633;28;20488;-75
2021/09/27 01:56:58;;;;;;;0.00;0.00;;;11.80;73.90;;;;;;5034291;28;20537;-75
2021/09/27 01:59:38;;;;;;;0.00;0.00;;;11.80;74.00;;;;;;5033432;28;20041;-77
2021/09/27 02:02:21;;;;;;;0.00;0.00;;;11.70;74.00;;;;;;5033924;28;20378;-75
2021/09/27 02:05:02;;;;;;;0.00;0.00;;;11.70;74.20;;;;;;5034753;28;20087;-75
2021/09/27 02:07:30;;;;;;;0.00;0.00;;;11.70;74.50;;;;;;5034788;28;20040;-75
2021/09/27 02:10:00;;;;;;;0.00;0.00;;;11.60;74.50;;;;;;5034635;28;20515;-75
2021/09/27 02:12:33;;;;;;;0.00;0.00;;;11.60;74.70;;;;;;5033300;28;20029;-76
2021/09/27 02:15:10;;;;;;;0.00;0.00;;;11.60;74.90;;;;;;5034339;28;20108;-75
2021/09/27 02:17:47;;;;;;;0.00;0.00;;;11.60;75.00;;;;;;5033235;28;20113;-75
2021/09/27 02:20:37;;;;;;;0.00;0.00;;;11.70;75.10;;;;;;5033185;28;20484;-75
2021/09/27 02:23:28;;;;;;;0.00;0.00;;;11.70;75.00;;;;;;5033730;28;20087;-75
2021/09/27 02:25:54;;;;;;;0.00;0.00;;;11.80;75.00;;;;;;5033283;28;20045;-75
2021/09/27 02:28:22;;;;;;;0.00;0.00;;;11.80;74.80;;;;;;5032971;28;20026;-75
2021/09/27 02:31:09;;;;;;;0.00;0.00;;;11.80;74.70;;;;;;5033906;28;20367;-75
2021/09/27 02:33:51;;;;;;;0.00;0.00;;;11.80;74.70;;;;;;5047683;28;20056;-75
2021/09/27 02:36:34;;;;;;;0.00;0.00;;;11.80;74.60;;;;;;5054253;28;20025;-75
2021/09/27 02:39:45;;;;;;;0.00;0.00;;;11.80;74.50;;;;;;5014255;28;20104;-75
2021/09/27 02:42:58;;;;;;;0.00;0.00;;;11.70;74.50;;;;;;5002069;28;20064;-75
2021/09/27 02:45:27;;;;;;;0.00;0.00;;;11.60;74.60;;;;;;5009744;28;20096;-75
2021/09/27 02:48:02;;;;;;;0.00;0.00;;;11.50;74.60;;;;;;5013073;28;20394;-75
2021/09/27 02:50:31;;;;;;;0.00;0.00;;;11.50;74.80;;;;;;5013829;28;20489;-77
2021/09/27 02:52:57;;;;;;;0.00;0.00;;;11.40;75.00;;;;;;5029484;28;20381;-75
2021/09/27 02:55:52;;;;;;;0.00;0.00;;;11.40;75.30;;;;;;5014276;28;20026;-75
2021/09/27 02:58:26;;;;;;;0.00;0.00;;;11.30;75.50;;;;;;5024238;28;20382;-75
2021/09/27 03:00:58;;;;;;;;;;;11.30;75.50;;;;;;5053994;28;20457;-75
2021/09/27 03:03:39;;;;;;;0.00;0.00;;;11.30;75.40;;;;;;5053691;28;20357;-75
2021/09/27 03:06:26;;;;;;;0.00;0.00;;;11.20;75.30;;;;;;5053435;28;20469;-74
2021/09/27 03:09:16;;;;;;;0.00;0.00;;;11.20;75.60;;;;;;5053298;28;20032;-75
2021/09/27 03:11:54;;;;;;;0.00;0.00;;;11.10;75.70;;;;;;5053318;28;20459;-74
2021/09/27 03:14:43;;;;;;;0.00;0.00;;;11.10;76.00;;;;;;5053414;28;20380;-75
2021/09/27 03:17:35;;;;;;;0.00;0.00;;;11.00;76.20;;;;;;5053410;28;20108;-75
2021/09/27 03:20:06;;;;;;;0.00;0.00;;;11.00;76.40;;;;;;5053716;28;20057;-76
2021/09/27 03:22:51;;;;;;;0.00;0.00;;;11.00;76.40;;;;;;5051992;28;20028;-75
2021/09/27 03:25:28;;;;;;;0.00;0.00;;;11.00;76.70;;;;;;5031303;28;20049;-74
2021/09/27 03:28:19;;;;;;;0.00;0.00;;;11.00;76.70;;;;;;5053161;28;20037;-75
2021/09/27 03:30:56;;;;;;;0.00;0.00;;;11.00;76.90;;;;;;5052109;28;20425;-76
2021/09/27 03:33:48;;;;;;;0.00;0.00;;;11.00;76.90;;;;;;5053032;28;20114;-76
2021/09/27 03:36:24;;;;;;;0.00;0.00;;;10.90;77.00;;;;;;5051798;28;20120;-76
2021/09/27 03:39:16;;;;;;;0.00;0.00;;;10.90;77.10;;;;;;5053033;28;21017;-76
2021/09/27 03:41:57;;;;;;;0.00;0.00;;;10.90;77.30;;;;;;5052911;28;20021;-76
2021/09/27 03:44:38;;;;;;;0.00;0.00;;;10.90;77.40;;;;;;5053672;28;20058;-74
2021/09/27 03:47:12;;;;;;;0.08;0.00;;;10.80;77.50;;;;;;5052031;28;20079;-75
2021/09/27 03:49:53;;;;;;;0.00;0.00;;;10.80;77.60;;;;;;5051984;28;20425;-76
2021/09/27 03:53:03;;;;;;;0.00;0.00;;;10.80;77.70;;;;;;5052936;28;20337;-74
2021/09/27 03:55:54;;;;;;;0.00;0.00;;;10.80;77.80;;;;;;5052863;28;20025;-74
2021/09/27 03:58:23;;;;;;;0.00;0.00;;;10.80;77.80;;;;;;5042968;28;20049;-75
2021/09/27 04:01:04;;;;;;;0.00;0.00;;;10.80;77.80;;;;;;5051193;28;20037;-75
2021/09/27 04:03:41;;;;;;;0.00;0.00;;;10.80;78.00;;;;;;5053158;28;20029;-75
2021/09/27 04:06:31;;;;;;;0.00;0.00;;;10.80;78.10;;;;;;5052845;28;20033;-76
2021/09/27 04:09:05;;;;;;;0.00;0.00;;;10.80;78.20;;;;;;5033589;28;20421;-78
2021/09/27 04:11:31;;;;;;;0.00;0.00;;;10.80;78.20;;;;;;5031634;28;20041;-76
2021/09/27 04:14:15;;;;;;;0.00;0.00;;;10.80;78.30;;;;;;5032449;28;20029;-75
2021/09/27 04:17:27;;;;;;;0.00;0.00;;;10.80;78.50;;;;;;5021699;28;20382;-75
2021/09/27 04:20:14;;;;;;;0.00;0.00;;;10.90;78.60;;;;;;5008844;28;20410;-75
2021/09/27 04:22:47;;;;;;;0.00;0.00;;;10.90;78.40;;;;;;5020960;28;20113;-77
2021/09/27 04:25:28;;;;;;;0.00;0.00;;;10.90;78.30;;;;;;5028259;28;20037;-76
2021/09/27 04:28:15;;;;;;;0.00;0.00;;;10.90;78.40;;;;;;5023176;28;20029;-75
2021/09/27 04:31:01;;;;;;;0.00;0.00;;;11.00;78.40;;;;;;5029764;28;20041;-76
2021/09/27 04:33:50;;;;;;;0.00;0.00;;;11.00;78.30;;;;;;5029600;28;20521;-76
2021/09/27 04:36:28;;;;;;;0.00;0.00;;;11.00;78.30;;;;;;5028567;28;20057;-77
2021/09/27 04:38:59;;;;;;;0.00;0.00;;;11.10;78.40;;;;;;5034612;28;20176;-75
2021/09/27 04:41:33;;;;;;;0.00;0.00;;;11.10;78.30;;;;;;5035297;28;20076;-75
2021/09/27 04:44:20;;;;;;;;;;;11.10;78.30;;;;;;5036408;28;20021;-77
2021/09/27 04:47:01;;;;;;;0.00;0.00;;;11.10;78.00;;;;;;5034049;28;19912;-76
2021/09/27 04:50:04;;;;;;;0.00;0.00;;;11.20;77.70;;;;;;5036178;28;20040;-76
2021/09/27 04:53:00;;;;;;;0.00;0.00;;;11.20;77.80;;;;;;5035888;28;20108;-75
2021/09/27 04:55:51;;;;;;;0.00;0.00;;;11.20;77.80;;;;;;5036205;28;20359;-76
2021/09/27 04:58:35;;;;;;;0.00;0.00;;;11.20;77.70;;;;;;5035024;28;20099;-76
2021/09/27 05:01:19;;;;;;;0.00;0.00;;;11.30;77.60;;;;;;5035896;28;20078;-75
2021/09/27 05:04:04;;;;;;;0.00;0.00;;;11.40;77.50;;;;;;5034630;28;20030;-75
2021/09/27 05:06:41;;;;;;;0.00;0.00;;;11.40;77.40;;;;;;5035552;28;20250;-76
2021/09/27 05:09:39;;;;;;;0.00;0.00;;;11.40;77.30;;;;;;5035792;28;20048;-76
2021/09/27 05:12:35;;;;;;;0.00;0.00;;;11.50;77.20;;;;;;5032548;28;20535;-77
2021/09/27 05:15:32;;;;;;;0.00;0.00;;;11.60;77.20;;;;;;5014259;28;20022;-75
2021/09/27 05:18:17;;;;;;;0.00;0.00;;;11.70;77.00;;;;;;5015794;28;20045;-77
2021/09/27 05:21:00;;;;;;;0.00;0.00;;;11.70;76.80;;;;;;5014739;28;20022;-76
2021/09/27 05:23:41;;;;;;;0.00;0.00;;;11.80;76.50;;;;;;5015790;28;20064;-77
2021/09/27 05:26:28;;;;;;;0.00;0.00;;;11.80;76.20;;;;;;5014512;28;20077;-77
2021/09/27 05:29:09;;;;;;;0.00;0.00;;;11.80;76.10;;;;;;5014138;28;20084;-77
2021/09/27 05:32:05;;;;;;;0.00;0.00;;;11.80;75.90;;;;;;5014184;28;20064;-78
2021/09/27 05:35:08;;;;;;;0.00;0.00;;;11.80;75.70;;;;;;5014362;28;20026;-77
2021/09/27 05:37:43;;;;;;;0.00;0.00;;;11.90;75.60;;;;;;5015107;28;20480;-78
2021/09/27 05:40:19;;;;;;;;;;;11.90;75.40;;;;;;5015463;28;20077;-76
2021/09/27 05:43:00;;;;;;;0.00;0.00;;;11.90;75.40;;;;;;5045293;28;20299;-77
2021/09/27 05:46:04;;;;;;;0.00;0.00;;;11.90;75.10;;;;;;5015042;28;20021;-77
2021/09/27 05:49:07;;;;;;;0.00;0.00;;;12.00;75.30;;;;;;5014900;28;20030;-77
2021/09/27 05:51:44;;;;;;;0.00;0.00;;;12.20;75.20;;;;;;4954551;29;20050;-75
2021/09/27 05:54:32;;;;;;;0.00;0.00;;;12.40;74.80;;;;;;5006349;28;20060;-76
2021/09/27 05:57:49;;;;;;;0.00;0.00;;;12.50;74.40;;;;;;5014693;28;20502;-77
2021/09/27 06:00:45;;;;;;;0.00;0.00;;;12.60;73.90;;;;;;4961648;28;20071;-75
2021/09/27 06:03:34;;;;;;;0.00;0.00;;;12.70;73.50;;;;;;5013557;28;20036;-77
2021/09/27 06:06:21;;;;;;;0.00;0.00;;;12.70;73.40;;;;;;5013718;28;20429;-75
2021/09/27 06:08:58;;;;;;;0.00;0.00;;;12.90;73.30;;;;;;5013856;28;20072;-76
2021/09/27 06:11:23;;;;;;;0.00;0.00;;;13.00;72.70;;;;;;5014579;28;20030;-77
2021/09/27 06:13:51;;;;;;;0.00;0.00;;;13.10;72.30;;;;;;5014485;28;20022;-76
2021/09/27 06:16:38;;;;;;;0.00;0.00;;;13.10;72.00;;;;;;5013530;28;20052;-76
2021/09/27 06:19:13;;;;;;;0.00;0.00;;;13.20;71.90;;;;;;5014806;28;20109;-77
2021/09/27 06:22:01;;;;;;;0.00;0.00;;;13.30;71.90;;;;;;5013290;28;20030;-76
2021/09/27 06:24:49;;;;;;;0.00;0.00;;;13.40;71.50;;;;;;5013058;28;20081;-77
2021/09/27 06:27:39;;;;;;;0.00;0.00;;;13.50;71.20;;;;;;5022481;28;20033;-76
2021/09/27 06:30:21;;;;;;;0.00;0.00;;;13.60;71.00;;;;;;5029652;28;20045;-75
2021/09/27 06:32:53;;;;;;;0.00;0.00;;;13.70;70.70;;;;;;5020789;28;20469;-76
2021/09/27 06:35:30;;;;;;;0.00;0.00;;;13.80;70.30;;;;;;5025443;28;20018;-78
2021/09/27 06:38:00;;;;;;;0.00;0.00;;;13.80;70.00;;;;;;5022288;28;20030;-75
2021/09/27 06:40:26;;;;;;;0.00;0.00;;;13.80;69.80;;;;;;5023901;28;20076;-78
2021/09/27 06:42:52;;;;;;;0.00;0.00;;;13.80;69.80;;;;;;5021002;28;20026;-76
2021/09/27 06:45:18;;;;;;;0.00;0.00;;;13.80;69.70;;;;;;5021113;28;20029;-76
2021/09/27 06:47:44;;;;;;;0.00;0.00;;;13.80;69.70;;;;;;5021785;28;20096;-77
2021/09/27 06:50:11;;;;;;;0.00;0.00;;;13.80;69.70;;;;;;5021451;28;20029;-77
2021/09/27 06:52:37;;;;;;;0.00;0.00;;;13.80;69.50;;;;;;5024724;28;20026;-75
2021/09/27 06:55:04;;;;;;;0.00;0.00;;;13.70;69.60;;;;;;5014347;28;20422;-78
2021/09/27 06:57:30;;;;;;;0.00;0.00;;;13.80;69.70;;;;;;5033582;28;20085;-77
2021/09/27 06:59:56;;;;;;;0.00;0.00;;;13.80;69.60;;;;;;5033846;28;20121;-77
2021/09/27 07:02:21;;;;;;;0.00;0.00;;;13.90;69.50;;;;;;5032344;28;20069;-77
2021/09/27 07:04:47;;;;;;;0.00;0.00;;;13.90;69.30;;;;;;5032392;28;20495;-77
2021/09/27 07:07:13;;;;;;;0.00;0.00;;;14.00;69.30;;;;;;5032427;28;20033;-77
2021/09/27 07:09:39;;;;;;;0.00;0.00;;;14.10;69.00;;;;;;5032426;28;20087;-77
2021/09/27 07:12:06;;;;;;;0.00;0.00;;;14.10;68.80;;;;;;5025986;28;20033;-77
2021/09/27 07:14:32;;;;;;;0.00;0.00;;;14.20;68.70;;;;;;5020174;28;20022;-77
2021/09/27 07:16:58;;;;;;;0.00;0.00;;;14.30;68.40;;;;;;5023168;28;20061;-78
2021/09/27 07:19:23;;;;;;;0.00;0.00;;;14.40;68.10;;;;;;5022913;28;20104;-78
2021/09/27 07:21:49;;;;;;;0.00;0.00;;;14.50;67.90;;;;;;5020990;28;20093;-76
2021/09/27 07:24:15;;;;;;;0.00;0.00;;;14.60;67.80;;;;;;5023251;28;20045;-75
2021/09/27 07:26:42;;;;;;;0.00;0.00;;;14.70;67.50;;;;;;5021946;28;20026;-75
2021/09/27 07:29:08;;;;;;;0.35;0.00;;;14.90;67.30;;;;;;5021574;28;20565;-78
2021/09/27 07:31:35;;;;;;;0.00;0.00;;;15.00;66.90;;;;;;5024219;28;20108;-76
2021/09/27 07:34:05;;;;;;;0.00;0.00;;;15.20;66.60;;;;;;5022589;28;20018;-77
2021/09/27 07:36:31;;;;;;;0.00;0.00;;;15.40;66.20;;;;;;5023298;28;20013;-76
2021/09/27 07:38:57;;;;;;;0.00;0.00;;;15.60;65.90;;;;;;5021162;28;20109;-76
2021/09/27 07:41:25;;;;;;;0.00;0.00;;;15.80;65.40;;;;;;5022481;28;20100;-77
2021/09/27 07:43:51;;;;;;;0.00;0.00;;;16.10;65.00;;;;;;5022025;28;20093;-76
2021/09/27 07:46:18;;;;;;;0.00;0.00;;;16.30;64.30;;;;;;5021795;28;20112;-76
2021/09/27 07:48:45;;;;;;;0.00;0.00;;;16.50;63.90;;;;;;5021059;28;20084;-76
2021/09/27 07:51:11;;;;;;;0.00;0.00;;;16.80;63.10;;;;;;5022990;28;20080;-77
2021/09/27 07:53:37;;;;;;;0.00;0.00;;;17.00;62.50;;;;;;5021734;28;20045;-77
2021/09/27 07:56:03;;;;;;;0.00;0.00;;;17.20;62.00;;;;;;5023613;28;20481;-76
2021/09/27 07:58:29;;;;;;;0.00;0.00;;;17.60;61.30;;;;;;5026572;28;20034;-76
2021/09/27 08:00:55;;;;;;;0.00;0.00;;;17.80;60.60;;;;;;5024602;28;20101;-76
2021/09/27 08:03:22;;;;;;;0.00;0.00;;;18.10;60.00;;;;;;5025100;28;20430;-76
2021/09/27 08:05:48;;;;;;;0.00;0.00;;;18.60;59.30;;;;;;5025208;28;20037;-77
2021/09/27 08:08:14;;;;;;;0.10;0.00;;;19.10;58.60;;;;;;5026938;28;20029;-77
2021/09/27 08:10:41;;;;;;;0.00;0.00;;;19.60;56.70;;;;;;5025494;28;20030;-80
2021/09/27 08:13:08;;;;;;;0.00;0.00;;;20.30;55.20;;;;;;5025027;28;20181;-78
2021/09/27 08:15:37;;;;;;;0.00;0.00;;;21.20;53.80;;;;;;5025537;28;20022;-77
2021/09/27 08:18:06;;;;;;;0.00;0.00;;;22.30;52.00;;;;;;5025643;28;20112;-76
2021/09/27 08:20:38;;;;;;;0.00;0.00;;;23.30;49.80;;;;;;5023244;28;20033;-78
2021/09/27 08:23:04;;;;;;;0.00;0.00;;;24.30;47.60;;;;;;5027167;28;20113;-77
2021/09/27 08:25:30;;;;;;;0.00;0.00;;;25.10;46.20;;;;;;5023101;28;20552;-77
2021/09/27 08:27:57;;;;;;;0.00;0.00;;;25.90;45.00;;;;;;5027030;28;20030;-76
2021/09/27 08:30:48;;;;;;;0.00;0.00;;;26.80;43.80;;;;;;5025473;28;20044;-76
2021/09/27 08:33:15;;;;;;;0.00;0.00;;;27.70;42.50;;;;;;5027031;28;20184;-76
2021/09/27 08:35:41;;;;;;;0.00;0.00;;;28.60;42.10;;;;;;5016541;28;20064;-76
2021/09/27 08:38:09;;;;;;;0.00;0.00;;;29.40;40.60;;;;;;5016539;28;20061;-76
2021/09/27 08:40:58;;;;;;;0.00;0.00;;;29.30;39.20;;;;;;5016801;28;20386;-76
2021/09/27 08:43:35;;;;;;;0.00;0.00;;;29.50;38.90;;;;;;4995959;28;20041;-77
2021/09/27 08:46:26;;;;;;;0.10;0.00;;;29.90;38.60;;;;;;5015124;28;20026;-77
2021/09/27 08:49:30;;;;;;;0.00;0.00;;;29.70;37.90;;;;;;5012365;28;20042;-77
2021/09/27 08:51:56;;;;;;;0.00;0.00;;;28.70;37.70;;;;;;5016524;28;20053;-76
2021/09/27 08:54:25;;;;;;;0.00;0.00;;;27.70;38.40;;;;;;5016576;28;20030;-78
2021/09/27 08:57:24;;;;;;;0.00;0.00;;;26.90;38.40;;;;;;5032098;28;20029;-77
2021/09/27 09:00:12;;;;;;;0.00;0.00;;;26.10;38.90;;;;;;5037401;28;20033;-76
2021/09/27 09:02:45;;;;;;;0.00;0.00;;;25.20;39.30;;;;;;5049323;28;20515;-76
2021/09/27 09:05:17;;;;;;;0.00;0.00;;;24.40;40.40;;;;;;5055892;28;20021;-76
2021/09/27 09:07:48;;;;;;;0.00;0.00;;;23.80;41.10;;;;;;5033921;28;20038;-76
2021/09/27 09:10:17;;;;;;;0.00;0.00;;;23.40;41.60;;;;;;5034423;28;20120;-76
2021/09/27 09:12:51;;;;;;;0.00;0.00;;;23.10;42.10;;;;;;5035776;28;20049;-76
2021/09/27 09:15:24;;;;;;;0.00;0.00;;;22.90;42.20;;;;;;5035045;28;20104;-76
2021/09/27 09:18:24;;;;;;;0.10;0.00;;;23.10;42.70;;;;;;5018401;28;20096;-77
2021/09/27 09:21:10;;;;;;;0.00;0.00;;;23.80;42.20;;;;;;5014521;28;20059;-77
2021/09/27 09:23:44;;;;;;;0.00;0.00;;;24.30;41.50;;;;;;5019819;28;20115;-77
2021/09/27 09:26:14;;;;;;;0.00;0.00;;;24.90;40.70;;;;;;5023567;28;20033;-76
2021/09/27 09:28:43;;;;;;;0.00;0.00;;;26.00;40.00;;;;;;5022042;28;20045;-76
2021/09/27 09:31:16;;;;;;;0.00;0.00;;;26.60;39.00;;;;;;5023125;28;20038;-77
2021/09/27 09:34:00;;;;;;;0.00;0.00;;;27.50;38.40;;;;;;5024603;28;20501;-76
2021/09/27 09:36:38;;;;;;;0.00;0.00;;;27.80;37.30;;;;;;5024388;28;20033;-77
2021/09/27 09:39:27;;;;;;;0.00;0.00;;;27.30;37.20;;;;;;5025488;28;20022;-78
2021/09/27 09:42:00;;;;;;;0.00;0.00;;;26.70;37.50;;;;;;5023836;28;20025;-76
2021/09/27 09:44:39;;;;;;;0.00;0.00;;;26.10;38.10;;;;;;5025831;28;20448;-77
2021/09/27 09:47:08;;;;;;;0.00;0.00;;;25.50;38.60;;;;;;5027764;28;20029;-77
2021/09/27 09:49:59;;;;;;;0.00;0.00;;;24.90;38.60;;;;;;5021085;28;20037;-76
2021/09/27 09:52:33;;;;;;;0.00;0.00;;;24.30;39.00;;;;;;5024009;28;20018;-76
2021/09/27 09:54:59;;;;;;;0.00;0.00;;;23.90;39.80;;;;;;5017637;28;20501;-78
2021/09/27 09:57:42;;;;;;;0.00;0.00;;;23.60;40.30;;;;;;5020743;28;20120;-76
2021/09/27 10:00:42;;;;;;;0.00;0.00;;;23.30;40.40;;;;;;5025647;28;20055;-75
2021/09/27 10:03:12;;;;;;;0.00;0.00;;;23.00;41.00;;;;;;5023215;28;20030;-76
2021/09/27 10:05:47;;;;;;;0.00;0.00;;;22.60;41.30;;;;;;5026508;28;20026;-77
2021/09/27 10:08:26;;;;;;;0.00;0.00;;;22.10;41.90;;;;;;5016313;28;20037;-76
2021/09/27 10:10:56;;;;;;;0.00;0.00;;;21.60;42.40;;;;;;5013815;28;20033;-76
2021/09/27 10:13:55;;;;;;;0.00;0.00;;;21.10;42.90;;;;;;5024166;28;20022;-76
2021/09/27 10:16:31;;;;;;;0.00;0.00;;;20.70;44.00;;;;;;5040332;28;20540;-77
2021/09/27 10:19:21;;;;;;;0.00;0.00;;;20.40;44.90;;;;;;5033785;28;20022;-76
2021/09/27 10:22:15;;;;;;;0.00;0.00;;;20.10;45.20;;;;;;5028607;28;20030;-76
2021/09/27 10:24:49;;;;;;;0.00;0.00;;;19.90;45.60;;;;;;5033506;28;20041;-76
2021/09/27 10:27:30;;;;;;;0.00;0.00;;;19.80;45.80;;;;;;5019972;28;20030;-77
2021/09/27 10:30:01;;;;;;;0.00;0.00;;;19.80;46.00;;;;;;5014352;28;20026;-77
2021/09/27 10:32:41;;;;;;;0.00;0.00;;;19.90;46.30;;;;;;5029362;28;20029;-77
2021/09/27 10:35:31;;;;;;;0.00;0.00;;;19.80;45.80;;;;;;5030474;28;20028;-76
2021/09/27 10:38:06;;;;;;;0.00;0.00;;;19.80;45.90;;;;;;5011334;28;20029;-75
2021/09/27 10:40:33;;;;;;;0.00;0.00;;;19.70;46.20;;;;;;5012806;28;20362;-77
2021/09/27 10:43:00;;;;;;;0.00;0.00;;;19.70;46.00;;;;;;5011589;28;20091;-76
2021/09/27 10:45:29;;;;;;;0.00;0.00;;;19.60;46.00;;;;;;5025701;28;20033;-76
2021/09/27 10:48:01;;;;;;;0.00;0.00;;;19.50;46.30;;;;;;5030173;28;20040;-76
2021/09/27 10:50:33;;;;;;;0.00;0.00;;;19.60;46.40;;;;;;5033753;28;20029;-78
2021/09/27 10:53:24;;;;;;;0.00;0.00;;;19.60;46.60;;;;;;5031796;28;20033;-80
2021/09/27 10:55:58;;;;;;;0.00;0.00;;;19.90;46.50;;;;;;5032073;28;20034;-78
2021/09/27 10:58:51;;;;;;;0.00;0.00;;;20.10;45.90;;;;;;5032167;28;20491;-75
2021/09/27 11:01:39;;;;;;;0.00;0.00;;;20.30;45.30;;;;;;5033891;28;20029;-77
2021/09/27 11:04:34;;;;;;;0.00;0.00;;;20.30;44.90;;;;;;5029992;28;20041;-79
2021/09/27 11:07:15;;;;;;;0.00;0.00;;;20.20;45.20;;;;;;5002308;28;20065;-77
2021/09/27 11:09:44;;;;;;;0.00;0.00;;;20.10;45.30;;;;;;5014080;28;20030;-78
2021/09/27 11:12:32;;;;;;;0.00;0.00;;;19.90;45.50;;;;;;5021904;28;20018;-78
2021/09/27 11:15:01;;;;;;;0.00;0.00;;;19.70;45.90;;;;;;5027722;28;20025;-78
2021/09/27 11:17:29;;;;;;;0.00;0.00;;;19.60;45.90;;;;;;5022757;28;20022;-77
2021/09/27 11:20:21;;;;;;;0.00;0.00;;;19.60;46.00;;;;;;5022357;28;20461;-76
2021/09/27 11:22:56;;;;;;;0.00;0.00;;;19.60;46.00;;;;;;5015951;28;20041;-77
2021/09/27 11:29:14;;;;;;;0.00;0.00;;;19.70;46.00;;;;;;5021593;28;20032;-78
2021/09/27 11:31:42;;;;;;;0.00;0.00;;;19.80;45.80;;;;;;5030643;28;20026;-78
2021/09/27 11:34:42;;;;;;;0.00;0.00;;;19.90;45.80;;;;;;5036402;28;20014;-79
2021/09/27 11:37:17;;;;;;;0.00;0.00;;;20.00;45.90;;;;;;5028065;28;20033;-77
2021/09/27 11:39:45;;;;;;;0.00;0.00;;;20.00;45.90;;;;;;5020493;28;20385;-76
2021/09/27 11:42:20;;;;;;;0.00;0.00;;;19.90;45.70;;;;;;5038505;28;20090;-76
2021/09/27 11:45:19;;;;;;;0.00;0.00;;;19.70;45.50;;;;;;5035071;28;20029;-78
2021/09/27 11:48:13;;;;;;;0.00;0.00;;;19.50;45.70;;;;;;5039920;28;20033;-77
2021/09/27 11:50:52;;;;;;;0.00;0.00;;;19.40;46.00;;;;;;5023229;28;20485;-78
2021/09/27 11:53:53;;;;;;;0.00;0.00;;;19.30;46.20;;;;;;5019526;28;20102;-76
2021/09/27 11:56:44;;;;;;;0.00;0.00;;;19.30;46.40;;;;;;5019086;28;20033;-78
2021/09/27 11:59:22;;;;;;;0.00;0.00;;;19.40;46.40;;;;;;5029426;28;20409;-77
2021/09/27 12:02:09;;;;;;;0.00;0.00;;;19.40;46.40;;;;;;5037098;28;20209;-81
2021/09/27 12:05:19;;;;;;;0.00;0.00;;;19.70;46.50;;;;;;5039468;28;20029;-75
2021/09/27 12:07:55;;;;;;;0.00;0.00;;;20.20;45.70;;;;;;5036706;28;20021;-76
2021/09/27 12:10:32;;;;;;;0.00;0.00;;;20.50;44.90;;;;;;5035874;28;20034;-77
2021/09/27 12:13:22;;;;;;;0.00;0.00;;;20.50;44.60;;;;;;5032778;28;20502;-78
2021/09/27 12:16:24;;;;;;;0.00;0.00;;;20.40;44.40;;;;;;5019021;28;20107;-76
2021/09/27 12:19:01;;;;;;;0.00;0.00;;;20.20;44.60;;;;;;5035190;28;20041;-75
2021/09/27 12:21:40;;;;;;;0.00;0.00;;;20.00;45.00;;;;;;5019815;28;20029;-77
2021/09/27 12:24:11;;;;;;;0.00;0.00;;;19.70;45.40;;;;;;5019491;28;20053;-76
2021/09/27 12:26:54;;;;;;;0.00;0.00;;;19.50;45.80;;;;;;5019075;28;20087;-76
2021/09/27 12:29:25;;;;;;;0.00;0.00;;;19.30;46.50;;;;;;5019700;28;20034;-77
2021/09/27 12:31:56;;;;;;;0.10;0.00;;;19.10;46.70;;;;;;5019215;28;20071;-79
2021/09/27 12:34:30;;;;;;;0.00;0.00;;;19.00;47.00;;;;;;5019283;28;20026;-77
2021/09/27 12:36:57;;;;;;;0.00;0.00;;;18.90;47.40;;;;;;5019843;28;20022;-78
2021/09/27 12:39:26;;;;;;;0.00;0.00;;;18.80;47.60;;;;;;5019397;28;20033;-77
2021/09/27 12:41:54;;;;;;;0.00;0.00;;;18.90;47.80;;;;;;5016694;28;20025;-77
2021/09/27 12:44:27;;;;;;;0.00;0.00;;;18.90;47.80;;;;;;5015321;28;20029;-76
2021/09/27 12:46:58;;;;;;;0.00;0.00;;;19.00;47.90;;;;;;5015754;28;20112;-76
2021/09/27 12:49:45;;;;;;;0.00;0.00;;;19.00;48.00;;;;;;5017129;28;20501;-78
2021/09/27 12:52:32;;;;;;;0.00;0.00;;;19.10;48.00;;;;;;5036178;28;20033;-77
2021/09/27 12:55:01;;;;;;;0.00;0.00;;;19.20;48.00;;;;;;5034544;28;20373;-78
2021/09/27 12:57:37;;;;;;;0.00;0.00;;;19.20;48.20;;;;;;5036060;28;20029;-77
2021/09/27 13:00:11;;;;;;;0.00;0.00;;;19.10;48.20;;;;;;5036001;28;20061;-77
2021/09/27 13:02:42;;;;;;;0.00;0.00;;;19.10;48.20;;;;;;5015676;28;20088;-76
2021/09/27 13:05:16;;;;;;;0.00;0.00;;;19.00;48.10;;;;;;5015665;28;20092;-77
2021/09/27 13:07:47;;;;;;;0.00;0.00;;;19.00;48.10;;;;;;5015923;28;20034;-76
2021/09/27 13:10:25;;;;;;;0.00;0.00;;;19.10;48.30;;;;;;4997704;28;20033;-77
2021/09/27 13:13:04;;;;;;;0.00;0.00;;;19.20;48.30;;;;;;5015473;28;20025;-76
2021/09/27 13:15:50;;;;;;;0.00;0.00;;;19.20;48.40;;;;;;5015524;28;20026;-78
2021/09/27 13:18:34;;;;;;;0.00;0.00;;;19.20;49.20;;;;;;5049497;28;20033;-78
2021/09/27 13:21:11;;;;;;;0.00;0.00;;;19.20;48.80;;;;;;5055192;28;20033;-77
2021/09/27 13:23:49;;;;;;;0.00;0.00;;;19.10;48.80;;;;;;5037754;28;20049;-78
2021/09/27 13:26:21;;;;;;;0.00;0.00;;;18.90;48.70;;;;;;5034032;28;20033;-77
2021/09/27 13:28:54;;;;;;;0.00;0.00;;;18.80;48.90;;;;;;5035119;28;20037;-78
2021/09/27 13:31:25;;;;;;;0.00;0.00;;;18.70;49.20;;;;;;5035222;28;20069;-76
2021/09/27 13:33:55;;;;;;;0.00;0.00;;;18.60;49.40;;;;;;5035424;28;20035;-77
2021/09/27 13:36:38;;;;;;;0.00;0.00;;;18.50;49.60;;;;;;5035038;28;20091;-78
2021/09/27 13:39:13;;;;;;;0.00;0.00;;;18.50;50.00;;;;;;5034792;28;20056;-77
2021/09/27 13:41:52;;;;;;;0.00;0.00;;;18.40;50.20;;;;;;5028409;28;20129;-77
2021/09/27 13:44:35;;;;;;;0.00;0.00;;;18.40;50.70;;;;;;5023852;28;20037;-76
2021/09/27 13:47:04;;;;;;;0.00;0.00;;;18.30;50.90;;;;;;5022980;28;20145;-76